createdAt,value
2019-05-30T00:01:56.365Z,3.33
2019-05-30T00:06:56.951Z,3.21
2019-05-30T00:11:56.550Z,1.42
2019-05-30T00:16:56.683Z,1.40
2019-05-30T00:21:56.572Z,2.61
2019-05-30T00:26:56.213Z,2.25
2019-05-30T00:31:57.443Z,2.74
2019-05-30T00:36:55.658Z,1.65
2019-05-30T00:41:56.031Z,1.27
2019-05-30T00:46:56.069Z,2.74
2019-05-30T00:51:56.349Z,2.93
2019-05-30T00:56:56.489Z,2.42
2019-05-30T01:01:54.968Z,1.36
2019-05-30T01:06:55.008Z,2.38
2019-05-30T01:11:54.877Z,2.06
2019-05-30T01:16:54.831Z,2.84
2019-05-30T01:21:54.711Z,1.90
2019-05-30T01:26:54.772Z,2.69
2019-05-30T01:31:54.598Z,2.79
2019-05-30T01:36:54.744Z,2.29
2019-05-30T01:41:54.682Z,2.69
2019-05-30T01:46:54.569Z,1.76
2019-05-30T01:51:54.412Z,2.10
2019-05-30T01:56:54.345Z,2.50
2019-05-30T02:01:54.396Z,2.84
2019-05-30T02:06:54.518Z,2.26
2019-05-30T02:11:54.467Z,2.35
2019-05-30T02:16:54.350Z,2.41
2019-05-30T02:21:54.260Z,1.65
2019-05-30T02:26:55.154Z,2.45
2019-05-30T02:31:54.074Z,1.85
2019-05-30T02:36:54.066Z,2.06
2019-05-30T02:41:53.999Z,2.51
2019-05-30T02:46:55.073Z,2.57
2019-05-30T02:51:53.860Z,2.20
2019-05-30T02:56:53.751Z,3.23
2019-05-30T03:02:00.838Z,2.85
2019-05-30T03:06:54.923Z,4.26
2019-05-30T03:11:53.728Z,4.24
2019-05-30T03:16:53.630Z,4.87
2019-05-30T03:21:53.812Z,4.51
2019-05-30T03:26:54.718Z,3.22
2019-05-30T03:31:54.559Z,3.20
2019-05-30T03:36:53.463Z,4.06
2019-05-30T03:41:53.431Z,4.30
2019-05-30T03:46:53.612Z,3.15
2019-05-30T03:51:53.415Z,4.38
2019-05-30T03:56:53.816Z,3.96
2019-05-30T04:01:53.673Z,4.81
2019-05-30T04:06:55.441Z,4.18
2019-05-30T04:11:54.381Z,3.10
2019-05-30T04:16:54.137Z,5.96
2019-05-30T04:21:53.174Z,5.06
2019-05-30T04:26:53.026Z,5.71
2019-05-30T04:31:52.936Z,5.96
2019-05-30T04:36:53.638Z,6.42
2019-05-30T04:41:52.818Z,6.23
2019-05-30T04:46:52.769Z,4.87
2019-05-30T04:51:52.726Z,5.46
2019-05-30T04:56:52.671Z,5.02
2019-05-30T05:01:53.048Z,6.41
2019-05-30T05:06:52.651Z,6.48
2019-05-30T05:11:52.782Z,7.07
2019-05-30T05:16:52.631Z,5.39
2019-05-30T05:21:52.572Z,5.48
2019-05-30T05:26:52.478Z,6.61
2019-05-30T05:31:52.398Z,3.45
2019-05-30T05:36:52.429Z,6.50
2019-05-30T05:41:52.525Z,7.22
2019-05-30T05:46:53.821Z,6.17
2019-05-30T05:51:52.185Z,7.26
2019-05-30T05:56:52.279Z,7.27
2019-05-30T06:01:52.098Z,7.30
2019-05-30T06:06:52.051Z,6.68
2019-05-30T06:11:52.250Z,8.22
2019-05-30T06:16:55.475Z,7.39
2019-05-30T06:21:54.317Z,7.13
2019-05-30T06:26:52.111Z,6.57
2019-05-30T06:31:51.891Z,6.43
2019-05-30T06:36:51.949Z,6.95
2019-05-30T06:41:51.809Z,6.98
2019-05-30T06:46:51.880Z,7.59
2019-05-30T06:51:51.948Z,7.92
2019-05-30T06:56:51.875Z,8.98
2019-05-30T07:01:52.303Z,7.92
2019-05-30T07:06:52.591Z,8.13
2019-05-30T07:11:51.724Z,8.06
2019-05-30T07:16:51.652Z,6.48
2019-05-30T07:21:51.635Z,10.95
2019-05-30T07:26:51.699Z,7.50
2019-05-30T07:31:51.538Z,5.96
2019-05-30T07:36:51.833Z,6.58
2019-05-30T07:42:05.197Z,7.28
2019-05-30T07:46:52.412Z,6.90
2019-05-30T07:51:51.414Z,6.03
2019-05-30T07:56:51.406Z,6.14
2019-05-30T08:01:51.291Z,4.70
2019-05-30T08:06:51.246Z,6.03
2019-05-30T08:11:51.463Z,6.28
2019-05-30T08:16:51.283Z,5.30
2019-05-30T08:21:51.308Z,6.73
2019-05-30T08:26:51.137Z,9.65
2019-05-30T08:31:51.159Z,5.68
2019-05-30T08:36:51.165Z,5.87
2019-05-30T08:41:51.179Z,8.01
2019-05-30T08:46:50.958Z,9.59
2019-05-30T08:51:51.018Z,6.30
2019-05-30T08:56:50.977Z,6.23
2019-05-30T09:01:53.161Z,5.62
2019-05-30T09:06:50.793Z,8.48
2019-05-30T09:11:51.053Z,5.72
2019-05-30T09:16:51.162Z,5.23
2019-05-30T09:21:51.097Z,5.07
2019-05-30T09:26:50.610Z,5.51
2019-05-30T09:31:50.675Z,5.80
2019-05-30T09:36:50.565Z,6.76
2019-05-30T09:41:50.676Z,6.54
2019-05-30T09:46:50.590Z,6.77
2019-05-30T09:51:51.133Z,7.08
2019-05-30T09:56:50.952Z,7.90
2019-05-30T10:01:50.499Z,5.88
2019-05-30T10:06:50.546Z,6.21
2019-05-30T10:11:51.331Z,6.17
2019-05-30T10:16:53.379Z,8.44
2019-05-30T10:21:52.034Z,5.48
2019-05-30T10:26:51.094Z,7.36
2019-05-30T10:31:50.592Z,6.87
2019-05-30T10:36:50.323Z,7.11
2019-05-30T10:41:50.983Z,8.66
2019-05-30T10:46:50.992Z,6.62
2019-05-30T10:51:51.487Z,5.06
2019-05-30T10:56:50.006Z,6.11
2019-05-30T11:01:50.352Z,6.57
2019-05-30T11:07:04.798Z,6.58
2019-05-30T11:11:50.906Z,5.42
2019-05-30T11:16:50.372Z,7.04
2019-05-30T11:21:49.808Z,8.39
2019-05-30T11:26:50.950Z,6.19
2019-05-30T11:31:50.722Z,5.59
2019-05-30T11:36:51.013Z,5.82
2019-05-30T11:41:49.787Z,5.89
2019-05-30T11:46:49.598Z,5.72
2019-05-30T11:51:51.733Z,5.65
2019-05-30T11:56:50.002Z,7.42
2019-05-30T12:01:50.259Z,6.39
2019-05-30T12:06:50.898Z,6.17
2019-05-30T12:11:49.391Z,7.46
2019-05-30T12:16:49.482Z,4.52
2019-05-30T12:21:49.268Z,5.70
2019-05-30T12:26:49.204Z,6.34
2019-05-30T12:31:49.244Z,6.90
2019-05-30T12:36:49.091Z,7.82
2019-05-30T12:41:49.067Z,5.33
2019-05-30T12:46:49.090Z,3.78
2019-05-30T12:51:49.014Z,6.45
2019-05-30T12:56:49.163Z,6.03
2019-05-30T13:01:48.984Z,6.65
2019-05-30T13:06:48.978Z,6.76
2019-05-30T13:11:48.931Z,5.70
2019-05-30T13:16:48.807Z,5.90
2019-05-30T13:21:48.719Z,7.10
2019-05-30T13:26:48.665Z,5.05
2019-05-30T13:31:48.873Z,6.34
2019-05-30T13:36:48.621Z,5.34
2019-05-30T13:41:48.701Z,6.14
2019-05-30T13:46:48.604Z,5.48
2019-05-30T13:51:48.468Z,4.89
2019-05-30T13:56:48.430Z,4.98
2019-05-30T14:01:48.351Z,4.05
2019-05-30T14:06:48.454Z,4.31
2019-05-30T14:11:48.532Z,4.84
2019-05-30T14:16:48.299Z,4.97
2019-05-30T14:21:48.179Z,5.56
2019-05-30T14:26:48.217Z,6.56
2019-05-30T14:31:48.455Z,8.36
2019-05-30T14:36:48.226Z,4.66
2019-05-30T14:41:48.279Z,5.27
2019-05-30T14:46:48.085Z,4.21
2019-05-30T14:51:47.986Z,4.42
2019-05-30T14:56:48.037Z,5.30
2019-05-30T15:01:47.924Z,3.42
2019-05-30T15:06:47.913Z,4.37
2019-05-30T15:11:58.603Z,5.40
2019-05-30T15:16:47.793Z,5.96
2019-05-30T15:21:47.734Z,6.12
2019-05-30T15:26:47.982Z,5.31
2019-05-30T15:31:48.151Z,5.46
2019-05-30T15:36:47.529Z,6.13
2019-05-30T15:41:47.480Z,6.32
2019-05-30T15:46:47.706Z,4.36
2019-05-30T15:51:47.390Z,5.86
2019-05-30T15:56:47.378Z,5.54
2019-05-30T16:01:47.488Z,4.88
2019-05-30T16:06:47.405Z,5.38
2019-05-30T16:11:47.368Z,6.06
2019-05-30T16:16:47.355Z,4.22
2019-05-30T16:21:47.146Z,4.84
2019-05-30T16:26:47.099Z,6.88
2019-05-30T16:31:47.157Z,6.61
2019-05-30T16:36:47.138Z,4.67
2019-05-30T16:41:46.974Z,5.47
2019-05-30T16:46:47.059Z,5.10
2019-05-30T16:51:47.703Z,5.89
2019-05-30T16:56:47.267Z,6.36
2019-05-30T17:01:56.817Z,5.49
2019-05-30T17:06:47.880Z,5.62
2019-05-30T17:11:46.848Z,5.33
2019-05-30T17:16:46.884Z,4.61
2019-05-30T17:21:46.666Z,4.54
2019-05-30T17:26:46.801Z,6.74
2019-05-30T17:31:46.579Z,5.76
2019-05-30T17:36:46.711Z,7.43
2019-05-30T17:41:46.446Z,4.83
2019-05-30T17:46:46.749Z,5.22
2019-05-30T17:51:49.832Z,2.73
2019-05-30T17:56:46.521Z,4.22
2019-05-30T18:01:46.319Z,3.31
2019-05-30T18:06:46.350Z,3.03
2019-05-30T18:11:46.236Z,3.99
2019-05-30T18:16:46.150Z,2.90
2019-05-30T18:21:46.108Z,4.69
2019-05-30T18:26:46.171Z,3.95
2019-05-30T18:31:45.987Z,4.50
2019-05-30T18:36:46.010Z,2.91
2019-05-30T18:41:45.898Z,3.14
2019-05-30T18:46:45.910Z,2.29
2019-05-30T18:51:45.835Z,3.18
2019-05-30T18:56:45.759Z,2.39
2019-05-30T19:01:45.807Z,2.56
2019-05-30T19:06:45.690Z,1.87
2019-05-30T19:11:45.636Z,1.90
2019-05-30T19:16:45.605Z,1.78
2019-05-30T19:21:45.515Z,2.34
2019-05-30T19:26:45.517Z,1.10
2019-05-30T19:31:45.555Z,1.73
2019-05-30T19:36:45.358Z,0.66
2019-05-30T19:41:54.028Z,1.22
2019-05-30T19:46:46.322Z,1.29
2019-05-30T19:51:48.511Z,1.30
2019-05-30T19:56:46.139Z,2.06
2019-05-30T20:01:45.101Z,1.39
2019-05-30T20:06:45.030Z,1.34
2019-05-30T20:11:59.898Z,0.43
2019-05-30T20:16:46.073Z,1.87
2019-05-30T20:21:44.997Z,1.28
2019-05-30T20:26:44.885Z,1.74
2019-05-30T20:31:47.990Z,2.13
2019-05-30T20:36:44.849Z,2.84
2019-05-30T20:41:44.723Z,2.80
2019-05-30T20:46:47.348Z,2.88
2019-05-30T20:51:44.734Z,2.84
2019-05-30T20:56:48.625Z,2.52
2019-05-30T21:01:45.983Z,2.57
2019-05-30T21:06:44.488Z,3.20
2019-05-30T21:11:46.546Z,3.61
2019-05-30T21:16:45.879Z,3.78
2019-05-30T21:21:44.322Z,4.06
2019-05-30T21:26:44.866Z,4.01
2019-05-30T21:31:45.643Z,4.02
2019-05-30T21:36:44.516Z,3.33
2019-05-30T21:41:44.582Z,4.25
2019-05-30T21:46:44.738Z,3.14
2019-05-30T21:51:45.436Z,5.21
2019-05-30T21:56:44.181Z,4.43
2019-05-30T22:01:44.819Z,5.07
2019-05-30T22:06:44.993Z,6.51
2019-05-30T22:11:43.932Z,5.64
2019-05-30T22:16:46.024Z,4.69
2019-05-30T22:21:44.192Z,3.42
2019-05-30T22:26:44.261Z,4.15
2019-05-30T22:31:44.686Z,4.18
2019-05-30T22:36:44.607Z,4.12
2019-05-30T22:41:46.494Z,3.62
2019-05-30T22:46:44.072Z,3.94
2019-05-30T22:51:44.863Z,3.70
2019-05-30T22:56:43.460Z,4.76
2019-05-30T23:01:44.791Z,3.95
2019-05-30T23:06:43.318Z,4.10
2019-05-30T23:11:45.534Z,3.86
2019-05-30T23:16:43.306Z,4.66
2019-05-30T23:21:43.241Z,5.01
2019-05-30T23:26:43.165Z,4.21
2019-05-30T23:31:43.073Z,3.55
2019-05-30T23:36:43.091Z,3.14
2019-05-30T23:41:43.028Z,3.74
2019-05-30T23:46:42.971Z,4.42
2019-05-30T23:51:43.098Z,3.90
2019-05-30T23:56:43.830Z,3.32
